createdAt,value
2017-10-28T00:01:17.315Z,71.96
2017-10-28T00:03:45.751Z,72.78
2017-10-28T00:06:13.568Z,72.70
2017-10-28T00:08:41.279Z,72.76
2017-10-28T00:11:08.880Z,72.75
2017-10-28T00:13:36.519Z,72.33
2017-10-28T00:16:04.268Z,72.54
2017-10-28T00:18:31.872Z,72.02
2017-10-28T00:20:59.480Z,72.38
2017-10-28T00:23:27.888Z,72.87
2017-10-28T00:25:55.487Z,72.31
2017-10-28T00:28:24.027Z,71.59
2017-10-28T00:30:57.650Z,71.16
2017-10-28T00:33:30.771Z,71.67
2017-10-28T00:36:15.289Z,71.70
2017-10-28T00:38:43.015Z,71.81
2017-10-28T00:41:11.440Z,71.91
2017-10-28T00:43:39.759Z,72.13
2017-10-28T00:46:07.424Z,72.44
2017-10-28T00:48:35.116Z,72.05
2017-10-28T00:51:02.772Z,72.85
2017-10-28T00:53:30.518Z,73.64
2017-10-28T00:55:58.124Z,72.48
2017-10-28T00:58:25.778Z,73.33
2017-10-28T01:00:53.380Z,72.40
2017-10-28T01:03:21.157Z,71.94
2017-10-28T01:05:48.856Z,73.43
2017-10-28T01:08:16.518Z,73.00
2017-10-28T01:10:44.181Z,74.24
2017-10-28T01:13:11.899Z,74.66
2017-10-28T01:15:39.564Z,76.02
2017-10-28T01:18:07.168Z,76.45
2017-10-28T01:20:35.723Z,75.04
2017-10-28T01:23:04.295Z,76.12
2017-10-28T01:25:32.012Z,75.60
2017-10-28T01:27:59.658Z,75.85
2017-10-28T01:30:28.055Z,76.22
2017-10-28T01:32:56.617Z,76.30
2017-10-28T01:35:25.146Z,76.87
2017-10-28T01:37:52.743Z,78.45
2017-10-28T01:40:20.343Z,77.01
2017-10-28T01:42:48.037Z,77.91
2017-10-28T01:45:15.735Z,77.54
2017-10-28T01:47:43.327Z,76.55
2017-10-28T01:50:11.020Z,77.20
2017-10-28T01:52:38.650Z,76.82
2017-10-28T01:55:07.094Z,76.52
2017-10-28T01:57:34.804Z,76.89
2017-10-28T02:00:02.456Z,76.64
2017-10-28T02:02:30.251Z,76.76
2017-10-28T02:04:57.952Z,77.23
2017-10-28T02:07:25.560Z,76.27
2017-10-28T02:09:53.160Z,76.12
2017-10-28T02:12:21.255Z,76.68
2017-10-28T02:14:48.852Z,77.09
2017-10-28T02:17:16.532Z,76.16
2017-10-28T02:19:44.260Z,75.99
2017-10-28T02:22:12.053Z,76.02
2017-10-28T02:24:39.712Z,75.61
2017-10-28T02:27:08.241Z,75.66
2017-10-28T02:29:36.843Z,76.68
2017-10-28T02:32:05.425Z,76.45
2017-10-28T02:34:33.133Z,77.23
2017-10-28T02:37:00.788Z,78.00
2017-10-28T02:39:28.394Z,77.49
2017-10-28T02:41:56.044Z,78.54
2017-10-28T02:44:23.683Z,78.27
2017-10-28T02:46:51.289Z,78.67
2017-10-28T02:49:18.949Z,80.14
2017-10-28T02:51:46.609Z,79.73
2017-10-28T02:54:14.279Z,79.44
2017-10-28T02:56:41.920Z,79.91
2017-10-28T02:59:09.528Z,79.41
2017-10-28T03:01:37.144Z,79.15
2017-10-28T03:04:04.825Z,79.04
2017-10-28T03:06:32.436Z,79.40
2017-10-28T03:09:00.092Z,80.57
2017-10-28T03:11:28.641Z,79.46
2017-10-28T03:13:56.311Z,79.25
2017-10-28T03:16:24.013Z,80.05
2017-10-28T03:18:51.668Z,79.54
2017-10-28T03:21:19.287Z,80.15
2017-10-28T03:23:47.139Z,80.29
2017-10-28T03:26:14.852Z,79.87
2017-10-28T03:28:42.542Z,80.46
2017-10-28T03:31:10.206Z,80.09
2017-10-28T03:33:37.859Z,79.87
2017-10-28T03:36:06.203Z,81.51
2017-10-28T03:38:33.870Z,79.45
2017-10-28T03:41:01.524Z,79.88
2017-10-28T03:43:29.334Z,80.79
2017-10-28T03:45:56.996Z,81.21
2017-10-28T03:48:24.732Z,79.60
2017-10-28T03:50:52.373Z,80.64
2017-10-28T03:53:20.116Z,80.52
2017-10-28T03:55:47.936Z,81.14
2017-10-28T03:58:15.539Z,81.52
2017-10-28T04:00:43.138Z,81.44
2017-10-28T04:03:11.744Z,82.86
2017-10-28T04:05:39.452Z,82.42
2017-10-28T04:08:07.065Z,81.27
2017-10-28T04:10:34.838Z,80.84
2017-10-28T04:13:02.453Z,83.34
2017-10-28T04:15:30.067Z,82.44
2017-10-28T04:17:57.897Z,81.90
2017-10-28T04:20:25.606Z,81.96
2017-10-28T04:22:53.288Z,83.07
2017-10-28T04:25:21.044Z,83.28
2017-10-28T04:27:48.728Z,83.47
2017-10-28T04:30:16.396Z,83.13
2017-10-28T04:32:44.116Z,82.21
2017-10-28T04:35:11.788Z,82.65
2017-10-28T04:37:39.656Z,82.76
2017-10-28T04:40:07.583Z,82.47
2017-10-28T04:42:35.380Z,82.87
2017-10-28T04:45:03.076Z,81.40
2017-10-28T04:47:30.780Z,81.22
2017-10-28T04:49:58.387Z,82.87
2017-10-28T04:52:26.871Z,81.19
2017-10-28T04:54:54.587Z,81.33
2017-10-28T04:57:22.359Z,81.23
2017-10-28T04:59:50.080Z,80.23
2017-10-28T05:02:17.752Z,81.51
2017-10-28T05:04:45.495Z,80.54
2017-10-28T05:07:13.120Z,80.85
2017-10-28T05:09:40.932Z,79.55
2017-10-28T05:12:08.604Z,79.45
2017-10-28T05:14:36.237Z,78.91
2017-10-28T05:17:03.896Z,80.00
2017-10-28T05:19:31.556Z,80.39
2017-10-28T05:21:59.308Z,79.98
2017-10-28T05:24:26.974Z,79.40
2017-10-28T05:26:54.645Z,81.31
2017-10-28T05:29:22.315Z,80.48
2017-10-28T05:31:50.899Z,80.61
2017-10-28T05:34:18.503Z,80.96
2017-10-28T05:36:46.174Z,80.72
2017-10-28T05:39:13.840Z,81.23
2017-10-28T05:41:41.447Z,80.74
2017-10-28T05:44:09.104Z,80.19
2017-10-28T05:46:36.774Z,81.17
2017-10-28T05:49:04.464Z,79.69
2017-10-28T05:51:32.143Z,79.74
2017-10-28T05:53:59.873Z,80.09
2017-10-28T05:56:27.719Z,79.66
2017-10-28T05:58:55.491Z,80.88
2017-10-28T06:01:23.284Z,78.44
2017-10-28T06:03:50.895Z,79.67
2017-10-28T06:06:18.534Z,79.21
2017-10-28T06:08:46.284Z,79.16
2017-10-28T06:11:13.892Z,78.39
2017-10-28T06:13:41.528Z,78.69
2017-10-28T06:16:09.183Z,78.29
2017-10-28T06:18:36.862Z,77.77
2017-10-28T06:21:04.541Z,78.11
2017-10-28T06:23:32.271Z,77.82
2017-10-28T06:26:00.189Z,77.22
2017-10-28T06:28:27.801Z,74.74
2017-10-28T06:30:55.532Z,74.95
2017-10-28T06:33:23.226Z,75.12
2017-10-28T06:35:50.893Z,76.24
2017-10-28T06:38:18.650Z,75.40
2017-10-28T06:40:46.327Z,74.84
2017-10-28T06:43:13.971Z,74.44
2017-10-28T06:45:41.636Z,74.05
2017-10-28T06:48:10.020Z,73.50
2017-10-28T06:50:37.752Z,74.13
2017-10-28T06:53:05.467Z,73.57
2017-10-28T06:55:33.086Z,74.28
2017-10-28T06:58:00.824Z,73.37
2017-10-28T07:00:28.542Z,72.48
2017-10-28T07:02:56.383Z,73.17
2017-10-28T07:05:23.991Z,73.41
2017-10-28T07:07:51.656Z,74.87
2017-10-28T07:10:19.293Z,73.49
2017-10-28T07:12:46.928Z,73.38
2017-10-28T07:15:14.651Z,73.87
2017-10-28T07:17:42.319Z,73.55
2017-10-28T07:20:09.966Z,73.45
2017-10-28T07:22:37.678Z,72.74
2017-10-28T07:25:05.336Z,72.06
2017-10-28T07:27:33.007Z,72.09
2017-10-28T07:30:00.655Z,72.04
2017-10-28T07:32:28.252Z,73.09
2017-10-28T07:34:56.093Z,71.69
2017-10-28T07:37:23.856Z,73.11
2017-10-28T07:39:51.476Z,73.19
2017-10-28T07:42:19.216Z,73.26
2017-10-28T07:44:47.039Z,72.02
2017-10-28T07:47:14.719Z,74.08
2017-10-28T07:49:42.509Z,74.73
2017-10-28T07:52:10.165Z,74.69
2017-10-28T07:54:37.848Z,75.06
2017-10-28T07:57:05.516Z,73.54
2017-10-28T07:59:33.225Z,75.35
2017-10-28T08:02:00.823Z,75.16
2017-10-28T08:04:28.548Z,76.28
2017-10-28T08:06:56.211Z,75.12
2017-10-28T08:09:23.818Z,75.54
2017-10-28T08:11:51.496Z,76.22
2017-10-28T08:14:19.259Z,75.15
2017-10-28T08:16:46.884Z,75.81
2017-10-28T08:19:14.579Z,75.03
2017-10-28T08:21:42.235Z,75.97
2017-10-28T08:24:09.916Z,73.93
2017-10-28T08:26:37.536Z,74.19
2017-10-28T08:29:05.179Z,73.30
2017-10-28T08:31:32.918Z,72.68
2017-10-28T08:34:00.564Z,72.17
2017-10-28T08:36:28.292Z,72.24
2017-10-28T08:38:55.896Z,72.41
2017-10-28T08:41:23.569Z,72.69
2017-10-28T08:43:51.236Z,72.56
2017-10-28T08:46:18.840Z,72.19
2017-10-28T08:48:46.502Z,72.34
2017-10-28T08:51:14.247Z,73.81
2017-10-28T08:53:41.857Z,71.02
2017-10-28T08:56:09.548Z,73.11
2017-10-28T08:58:37.224Z,72.13
2017-10-28T09:01:04.844Z,70.93
2017-10-28T09:03:32.517Z,72.61
2017-10-28T09:06:00.198Z,73.07
2017-10-28T09:08:27.881Z,73.02
2017-10-28T09:10:55.562Z,73.56
2017-10-28T09:13:23.318Z,73.28
2017-10-28T09:15:50.916Z,74.64
2017-10-28T09:18:18.568Z,74.26
2017-10-28T09:20:46.259Z,73.61
2017-10-28T09:23:13.879Z,76.89
2017-10-28T09:25:41.608Z,76.92
2017-10-28T09:28:09.282Z,77.60
2017-10-28T09:30:36.962Z,76.17
2017-10-28T09:33:04.697Z,75.85
2017-10-28T09:35:32.475Z,76.87
2017-10-28T09:38:00.181Z,77.45
2017-10-28T09:40:27.799Z,77.62
2017-10-28T09:42:55.537Z,76.67
2017-10-28T09:45:23.204Z,78.44
2017-10-28T09:47:50.833Z,78.34
2017-10-28T09:50:18.589Z,78.18
2017-10-28T09:52:46.259Z,78.69
2017-10-28T09:55:13.944Z,79.34
2017-10-28T09:57:41.617Z,78.65
2017-10-28T10:00:09.389Z,79.74
2017-10-28T10:02:37.145Z,78.90
2017-10-28T10:05:04.899Z,79.35
2017-10-28T10:07:32.627Z,78.43
2017-10-28T10:10:00.303Z,78.87
2017-10-28T10:12:28.008Z,78.82
2017-10-28T10:14:55.628Z,77.37
2017-10-28T10:17:23.317Z,78.42
2017-10-28T10:19:51.032Z,77.25
2017-10-28T10:22:18.752Z,77.77
2017-10-28T10:24:47.336Z,76.74
2017-10-28T10:27:15.104Z,78.01
2017-10-28T10:29:42.754Z,75.15
2017-10-28T10:32:10.364Z,75.16
2017-10-28T10:34:38.126Z,72.80
2017-10-28T10:37:05.795Z,74.20
2017-10-28T10:39:33.428Z,74.11
2017-10-28T10:42:01.091Z,73.05
2017-10-28T10:44:28.698Z,72.50
2017-10-28T10:46:56.391Z,72.84
2017-10-28T10:49:24.181Z,70.97
2017-10-28T10:51:51.814Z,71.48
2017-10-28T10:54:19.492Z,71.62
2017-10-28T10:56:47.195Z,70.51
2017-10-28T10:59:14.894Z,70.87
2017-10-28T11:01:43.505Z,70.54
2017-10-28T11:04:11.231Z,71.23
2017-10-28T11:06:39.037Z,71.19
2017-10-28T11:09:06.746Z,70.18
2017-10-28T11:11:34.505Z,70.16
2017-10-28T11:14:02.157Z,70.17
2017-10-28T11:16:29.875Z,70.56
2017-10-28T11:18:57.632Z,70.71
2017-10-28T11:21:25.348Z,71.26
2017-10-28T11:23:52.979Z,70.88
2017-10-28T11:26:20.783Z,71.72
2017-10-28T11:28:48.424Z,71.96
2017-10-28T11:31:16.063Z,71.17
2017-10-28T11:33:43.792Z,70.61
2017-10-28T11:36:11.475Z,71.57
2017-10-28T11:38:39.219Z,71.15
2017-10-28T11:41:07.048Z,69.10
2017-10-28T11:43:34.692Z,69.30
2017-10-28T11:46:02.299Z,69.01
2017-10-28T11:48:29.979Z,69.64
2017-10-28T11:50:57.647Z,68.15
2017-10-28T11:53:26.083Z,68.16
2017-10-28T11:55:53.765Z,67.29
2017-10-28T11:58:21.400Z,67.45
2017-10-28T12:00:49.177Z,67.96
2017-10-28T12:03:16.877Z,67.18
2017-10-28T12:05:44.503Z,67.04
2017-10-28T12:08:12.176Z,67.08
2017-10-28T12:10:39.945Z,67.51
2017-10-28T12:13:07.663Z,67.11
2017-10-28T12:15:35.271Z,66.65
2017-10-28T12:18:02.992Z,66.89
2017-10-28T12:20:30.751Z,66.14
2017-10-28T12:22:58.375Z,67.59
2017-10-28T12:25:26.341Z,68.84
2017-10-28T12:27:54.006Z,68.98
2017-10-28T12:30:21.708Z,69.53
2017-10-28T12:32:49.395Z,69.00
2017-10-28T12:35:16.999Z,70.27
2017-10-28T12:37:45.405Z,70.95
2017-10-28T12:40:13.071Z,71.99
2017-10-28T12:42:40.678Z,73.51
2017-10-28T12:45:09.117Z,77.33
2017-10-28T12:47:36.938Z,79.35
2017-10-28T12:50:04.645Z,80.73
2017-10-28T12:52:32.315Z,82.04
2017-10-28T12:55:00.188Z,83.58
2017-10-28T12:57:27.843Z,84.59
2017-10-28T12:59:55.592Z,85.40
2017-10-28T13:02:23.343Z,83.93
2017-10-28T13:04:51.037Z,85.06
2017-10-28T13:07:18.735Z,85.04
2017-10-28T13:09:46.583Z,85.68
2017-10-28T13:12:14.229Z,85.35
2017-10-28T13:14:41.852Z,85.63
2017-10-28T13:17:09.638Z,85.94
2017-10-28T13:19:37.426Z,85.90
2017-10-28T13:22:05.147Z,86.12
2017-10-28T13:24:32.930Z,86.34
2017-10-28T13:27:00.747Z,86.32
2017-10-28T13:29:28.628Z,86.56
2017-10-28T13:31:56.435Z,85.96
2017-10-28T13:34:24.081Z,86.03
2017-10-28T13:36:51.781Z,86.02
2017-10-28T13:39:19.548Z,85.58
2017-10-28T13:41:47.319Z,85.57
2017-10-28T13:44:15.125Z,85.76
2017-10-28T13:46:42.935Z,85.17
2017-10-28T13:49:10.587Z,84.99
2017-10-28T13:51:38.272Z,85.15
2017-10-28T13:54:06.156Z,83.88
2017-10-28T13:56:33.837Z,84.37
2017-10-28T13:59:01.513Z,84.44
2017-10-28T14:01:29.242Z,84.40
2017-10-28T14:03:56.876Z,84.47
2017-10-28T14:06:24.587Z,84.79
2017-10-28T14:08:52.347Z,84.34
2017-10-28T14:11:20.031Z,84.17
2017-10-28T14:13:47.651Z,84.33
2017-10-28T14:16:15.427Z,84.49
2017-10-28T14:18:43.043Z,84.48
2017-10-28T14:21:10.740Z,84.54
2017-10-28T14:23:38.581Z,83.73
2017-10-28T14:26:06.247Z,83.63
2017-10-28T14:28:34.688Z,84.28
2017-10-28T14:31:02.443Z,84.31
2017-10-28T14:33:30.138Z,84.87
2017-10-28T14:35:57.872Z,85.15
2017-10-28T14:38:25.655Z,85.06
2017-10-28T14:40:53.280Z,85.38
2017-10-28T14:43:20.907Z,85.44
2017-10-28T14:45:48.696Z,85.65
2017-10-28T14:48:16.363Z,85.62
2017-10-28T14:50:44.032Z,85.97
2017-10-28T14:53:11.856Z,85.80
2017-10-28T14:55:39.508Z,85.95
2017-10-28T14:58:07.127Z,86.08
2017-10-28T15:00:34.856Z,86.12
2017-10-28T15:03:02.538Z,85.86
2017-10-28T15:05:30.160Z,85.50
2017-10-28T15:07:57.840Z,85.32
2017-10-28T15:10:25.523Z,85.78
2017-10-28T15:12:53.139Z,86.20
2017-10-28T15:15:20.873Z,86.53
2017-10-28T15:17:48.488Z,86.53
2017-10-28T15:20:16.276Z,85.62
2017-10-28T15:22:43.941Z,85.01
2017-10-28T15:25:11.620Z,84.65
2017-10-28T15:27:39.245Z,84.47
2017-10-28T15:30:06.963Z,84.65
2017-10-28T15:32:34.629Z,84.21
2017-10-28T15:35:02.253Z,83.65
2017-10-28T15:37:30.003Z,82.50
2017-10-28T15:39:57.671Z,83.52
2017-10-28T15:42:25.284Z,83.52
2017-10-28T15:44:52.951Z,83.25
2017-10-28T15:47:20.612Z,83.82
2017-10-28T15:49:48.348Z,83.87
2017-10-28T15:52:16.021Z,84.67
2017-10-28T15:54:43.643Z,85.33
2017-10-28T15:57:11.263Z,83.40
2017-10-28T15:59:39.012Z,84.06
2017-10-28T16:02:06.700Z,84.42
2017-10-28T16:04:34.311Z,84.70
2017-10-28T16:07:02.224Z,84.71
2017-10-28T16:09:29.851Z,84.71
2017-10-28T16:11:57.528Z,85.15
2017-10-28T16:14:25.269Z,85.49
2017-10-28T16:16:52.899Z,85.37
2017-10-28T16:19:20.513Z,85.57
2017-10-28T16:21:48.283Z,85.83
2017-10-28T16:24:15.920Z,85.98
2017-10-28T16:26:43.561Z,86.19
2017-10-28T16:29:11.253Z,86.71
2017-10-28T16:31:38.956Z,86.80
2017-10-28T16:34:06.592Z,87.34
2017-10-28T16:36:34.283Z,87.63
2017-10-28T16:39:01.915Z,87.66
2017-10-28T16:41:30.053Z,87.91
2017-10-28T16:43:58.059Z,87.85
2017-10-28T16:46:25.713Z,87.86
2017-10-28T16:48:54.575Z,87.38
2017-10-28T16:51:22.296Z,87.51
2017-10-28T16:53:49.974Z,87.33
2017-10-28T16:56:17.655Z,87.20
2017-10-28T16:58:45.453Z,86.85
2017-10-28T17:01:13.220Z,86.85
2017-10-28T17:03:40.860Z,86.91
2017-10-28T17:06:08.549Z,87.26
2017-10-28T17:08:36.167Z,86.84
2017-10-28T17:11:03.860Z,86.65
2017-10-28T17:13:31.535Z,86.44
2017-10-28T17:15:59.550Z,86.90
2017-10-28T17:18:27.252Z,86.57
2017-10-28T17:20:54.932Z,86.21
2017-10-28T17:23:22.549Z,86.16
2017-10-28T17:25:50.253Z,86.53
2017-10-28T17:28:17.930Z,86.09
2017-10-28T17:30:45.563Z,86.17
2017-10-28T17:33:13.245Z,86.29
2017-10-28T17:35:40.938Z,86.87
2017-10-28T17:38:08.570Z,86.49
2017-10-28T17:40:36.247Z,86.46
2017-10-28T17:43:03.928Z,86.63
2017-10-28T17:45:31.552Z,86.76
2017-10-28T17:47:59.167Z,85.99
2017-10-28T17:50:26.835Z,86.33
2017-10-28T17:52:54.465Z,86.18
2017-10-28T17:55:22.179Z,86.07
2017-10-28T17:57:49.859Z,85.75
2017-10-28T18:00:17.601Z,86.02
2017-10-28T18:02:45.231Z,86.09
2017-10-28T18:05:12.908Z,86.06
2017-10-28T18:07:40.592Z,86.12
2017-10-28T18:10:08.276Z,86.02
2017-10-28T18:12:35.987Z,86.04
2017-10-28T18:15:03.712Z,86.27
2017-10-28T18:17:31.335Z,86.68
2017-10-28T18:19:58.995Z,86.99
2017-10-28T18:22:26.664Z,86.96
2017-10-28T18:24:54.292Z,86.85
2017-10-28T18:27:21.955Z,87.07
2017-10-28T18:29:49.585Z,87.10
2017-10-28T18:32:17.255Z,87.06
2017-10-28T18:34:51.166Z,86.69
2017-10-28T18:37:18.779Z,86.66
2017-10-28T18:39:46.457Z,86.57
2017-10-28T18:42:14.127Z,85.53
2017-10-28T18:44:41.800Z,85.04
2017-10-28T18:47:09.416Z,83.28
2017-10-28T18:49:37.155Z,83.11
2017-10-28T18:52:04.780Z,83.24
2017-10-28T18:54:32.448Z,82.19
2017-10-28T18:57:00.103Z,81.37
2017-10-28T18:59:27.715Z,79.31
2017-10-28T19:01:55.398Z,80.94
2017-10-28T19:04:23.072Z,79.91
2017-10-28T19:06:50.672Z,80.36
2017-10-28T19:09:18.277Z,82.07
2017-10-28T19:11:46.000Z,81.83
2017-10-28T19:14:13.672Z,81.12
2017-10-28T19:16:41.340Z,81.09
2017-10-28T19:19:09.060Z,81.56
2017-10-28T19:21:36.731Z,81.56
2017-10-28T19:24:04.427Z,81.23
2017-10-28T19:26:32.089Z,80.26
2017-10-28T19:28:59.765Z,80.08
2017-10-28T19:31:27.419Z,78.65
2017-10-28T19:33:55.088Z,79.47
2017-10-28T19:36:22.748Z,78.79
2017-10-28T19:38:50.356Z,79.67
2017-10-28T19:41:18.041Z,81.02
2017-10-28T19:43:45.709Z,79.82
2017-10-28T19:46:13.315Z,81.44
2017-10-28T19:48:40.987Z,80.79
2017-10-28T19:51:08.599Z,81.97
2017-10-28T19:53:36.273Z,82.21
2017-10-28T19:56:03.988Z,82.36
2017-10-28T19:58:31.656Z,82.54
2017-10-28T20:00:59.312Z,82.50
2017-10-28T20:03:27.031Z,82.33
2017-10-28T20:05:54.691Z,82.71
2017-10-28T20:08:22.355Z,82.63
2017-10-28T20:10:50.063Z,82.98
2017-10-28T20:13:17.680Z,82.92
2017-10-28T20:15:45.343Z,82.94
2017-10-28T20:18:13.019Z,82.36
2017-10-28T20:20:40.692Z,81.35
2017-10-28T20:23:08.357Z,82.40
2017-10-28T20:25:36.008Z,81.83
2017-10-28T20:28:03.610Z,82.09
2017-10-28T20:30:31.208Z,82.68
2017-10-28T20:32:58.895Z,83.06
2017-10-28T20:35:26.499Z,82.47
2017-10-28T20:37:54.161Z,81.95
2017-10-28T20:40:21.873Z,81.91
2017-10-28T20:42:49.534Z,81.18
2017-10-28T20:45:17.135Z,81.68
2017-10-28T20:47:44.792Z,82.83
2017-10-28T20:50:12.473Z,82.32
2017-10-28T20:52:40.075Z,83.09
2017-10-28T20:55:07.715Z,82.11
2017-10-28T20:57:35.384Z,82.16
2017-10-28T21:00:04.739Z,82.61
2017-10-28T21:02:32.484Z,82.02
2017-10-28T21:05:00.088Z,80.87
2017-10-28T21:07:27.689Z,80.81
2017-10-28T21:09:55.332Z,81.27
2017-10-28T21:12:22.985Z,79.91
2017-10-28T21:14:50.584Z,78.83
2017-10-28T21:17:18.223Z,78.66
2017-10-28T21:19:45.819Z,78.27
2017-10-28T21:22:13.868Z,78.94
2017-10-28T21:24:41.530Z,78.77
2017-10-28T21:27:09.124Z,79.17
2017-10-28T21:29:36.724Z,78.93
2017-10-28T21:32:04.364Z,78.48
2017-10-28T21:34:32.012Z,77.93
2017-10-28T21:36:59.611Z,78.14
2017-10-28T21:39:27.320Z,77.89
2017-10-28T21:41:54.911Z,76.92
2017-10-28T21:44:22.503Z,76.21
2017-10-28T21:46:50.151Z,76.63
2017-10-28T21:49:17.800Z,76.27
2017-10-28T21:51:45.457Z,76.68
2017-10-28T21:54:13.104Z,75.91
2017-10-28T21:56:40.706Z,76.51
2017-10-28T21:59:08.304Z,75.48
2017-10-28T22:01:35.956Z,76.04
2017-10-28T22:04:03.562Z,77.16
2017-10-28T22:06:31.156Z,76.47
2017-10-28T22:08:58.808Z,76.55
2017-10-28T22:11:26.405Z,76.79
2017-10-28T22:13:54.000Z,76.65
2017-10-28T22:16:21.636Z,77.46
2017-10-28T22:18:49.297Z,76.26
2017-10-28T22:21:16.903Z,75.63
2017-10-28T22:23:44.553Z,75.43
2017-10-28T22:26:12.141Z,75.45
2017-10-28T22:28:39.791Z,75.76
2017-10-28T22:31:07.528Z,76.36
2017-10-28T22:33:35.128Z,75.68
2017-10-28T22:36:02.780Z,75.27
2017-10-28T22:38:30.488Z,75.04
2017-10-28T22:40:58.148Z,74.80
2017-10-28T22:43:25.800Z,75.22
2017-10-28T22:45:53.462Z,75.19
2017-10-28T22:48:21.854Z,74.62
2017-10-28T22:50:49.516Z,74.21
2017-10-28T22:53:17.168Z,74.44
2017-10-28T22:55:44.787Z,74.11
2017-10-28T22:58:12.452Z,74.41
2017-10-28T23:00:40.095Z,74.56
2017-10-28T23:03:07.756Z,73.66
2017-10-28T23:05:35.411Z,74.02
2017-10-28T23:08:03.124Z,74.54
2017-10-28T23:10:30.767Z,74.23
2017-10-28T23:12:58.423Z,74.86
2017-10-28T23:15:26.077Z,74.52
2017-10-28T23:17:53.684Z,73.69
2017-10-28T23:20:21.349Z,73.73
2017-10-28T23:22:49.104Z,74.51
2017-10-28T23:25:16.704Z,73.13
2017-10-28T23:27:44.368Z,74.61
2017-10-28T23:30:12.072Z,73.82
2017-10-28T23:32:39.720Z,74.67
2017-10-28T23:35:07.382Z,74.06
2017-10-28T23:37:35.027Z,73.69
2017-10-28T23:40:02.615Z,74.50
2017-10-28T23:42:30.218Z,74.54
2017-10-28T23:44:57.864Z,74.09
2017-10-28T23:47:25.460Z,73.91
2017-10-28T23:49:53.052Z,73.14
2017-10-28T23:52:20.705Z,73.48
2017-10-28T23:54:48.367Z,73.17
2017-10-28T23:57:16.055Z,74.04
2017-10-28T23:59:43.770Z,73.71
